sensor_id;sensor_type;location;lat;lon;timestamp;pressure;altitude;pressure_sealevel;temperature;humidity
74594;BME280;63097;51.872;4.460;2023-05-29T00:00:29;102563.72;;;12.00;79.08
74594;BME280;63097;51.872;4.460;2023-05-29T00:02:55;102573.81;;;11.95;79.53
74594;BME280;63097;51.872;4.460;2023-05-29T00:05:20;102584.16;;;11.88;79.76
74594;BME280;63097;51.872;4.460;2023-05-29T00:07:45;102579.22;;;11.83;80.10
74594;BME280;63097;51.872;4.460;2023-05-29T00:10:11;102586.06;;;11.87;79.65
74594;BME280;63097;51.872;4.460;2023-05-29T00:12:38;102580.31;;;11.82;80.26
74594;BME280;63097;51.872;4.460;2023-05-29T00:15:04;102577.31;;;11.77;80.11
74594;BME280;63097;51.872;4.460;2023-05-29T00:17:30;102586.78;;;11.70;80.48
74594;BME280;63097;51.872;4.460;2023-05-29T00:19:55;102592.13;;;11.71;80.42
74594;BME280;63097;51.872;4.460;2023-05-29T00:22:20;102585.03;;;11.69;80.29
74594;BME280;63097;51.872;4.460;2023-05-29T00:24:46;102580.31;;;11.76;79.96
74594;BME280;63097;51.872;4.460;2023-05-29T00:27:12;102576.25;;;11.65;80.46
74594;BME280;63097;51.872;4.460;2023-05-29T00:29:37;102591.94;;;11.66;80.36
74594;BME280;63097;51.872;4.460;2023-05-29T00:32:02;102580.97;;;11.65;80.23
74594;BME280;63097;51.872;4.460;2023-05-29T00:34:28;102586.31;;;11.60;80.58
74594;BME280;63097;51.872;4.460;2023-05-29T00:36:53;102590.19;;;11.59;80.77
74594;BME280;63097;51.872;4.460;2023-05-29T00:39:19;102588.47;;;11.58;80.92
74594;BME280;63097;51.872;4.460;2023-05-29T00:41:44;102593.19;;;11.57;80.89
74594;BME280;63097;51.872;4.460;2023-05-29T00:44:09;102596.19;;;11.56;80.93
74594;BME280;63097;51.872;4.460;2023-05-29T00:46:35;102594.06;;;11.51;80.97
74594;BME280;63097;51.872;4.460;2023-05-29T00:49:00;102594.94;;;11.52;81.21
74594;BME280;63097;51.872;4.460;2023-05-29T00:51:27;102601.13;;;11.47;81.29
74594;BME280;63097;51.872;4.460;2023-05-29T00:53:54;102604.78;;;11.48;81.22
74594;BME280;63097;51.872;4.460;2023-05-29T00:56:21;102614.19;;;11.47;81.73
74594;BME280;63097;51.872;4.460;2023-05-29T00:58:50;102617.00;;;11.47;81.61
74594;BME280;63097;51.872;4.460;2023-05-29T01:01:18;102618.47;;;11.43;81.85
74594;BME280;63097;51.872;4.460;2023-05-29T01:03:43;102614.41;;;11.45;82.21
74594;BME280;63097;51.872;4.460;2023-05-29T01:06:09;102630.50;;;11.43;82.38
74594;BME280;63097;51.872;4.460;2023-05-29T01:08:34;102622.78;;;11.45;82.13
74594;BME280;63097;51.872;4.460;2023-05-29T01:11:17;102633.06;;;11.45;82.23
74594;BME280;63097;51.872;4.460;2023-05-29T01:13:45;102633.50;;;11.48;82.19
74594;BME280;63097;51.872;4.460;2023-05-29T01:16:16;102632.88;;;11.46;82.57
74594;BME280;63097;51.872;4.460;2023-05-29T01:18:51;102621.06;;;11.51;82.35
74594;BME280;63097;51.872;4.460;2023-05-29T01:21:39;102639.06;;;11.48;82.40
74594;BME280;63097;51.872;4.460;2023-05-29T01:24:14;102630.50;;;11.50;82.51
74594;BME280;63097;51.872;4.460;2023-05-29T01:27:00;102628.97;;;11.54;82.44
74594;BME280;63097;51.872;4.460;2023-05-29T01:29:32;102620.00;;;11.45;82.41
74594;BME280;63097;51.872;4.460;2023-05-29T01:31:59;102625.34;;;11.47;82.18
74594;BME280;63097;51.872;4.460;2023-05-29T01:34:24;102631.34;;;11.50;82.24
74594;BME280;63097;51.872;4.460;2023-05-29T01:36:50;102628.38;;;11.39;82.39
74594;BME280;63097;51.872;4.460;2023-05-29T01:39:15;102631.78;;;11.47;82.37
74594;BME280;63097;51.872;4.460;2023-05-29T01:41:43;102628.78;;;11.36;82.51
74594;BME280;63097;51.872;4.460;2023-05-29T01:44:10;102627.94;;;11.29;82.95
74594;BME280;63097;51.872;4.460;2023-05-29T01:46:37;102635.00;;;11.25;82.95
74594;BME280;63097;51.872;4.460;2023-05-29T01:49:03;102633.91;;;11.19;83.28
74594;BME280;63097;51.872;4.460;2023-05-29T01:51:29;102632.22;;;11.18;83.49
74594;BME280;63097;51.872;4.460;2023-05-29T01:53:54;102633.09;;;11.19;82.89
74594;BME280;63097;51.872;4.460;2023-05-29T01:56:20;102641.84;;;11.09;83.46
74594;BME280;63097;51.872;4.460;2023-05-29T01:58:46;102642.50;;;11.11;83.21
74594;BME280;63097;51.872;4.460;2023-05-29T02:01:12;102643.13;;;11.06;83.40
74594;BME280;63097;51.872;4.460;2023-05-29T02:03:38;102652.34;;;11.00;83.17
74594;BME280;63097;51.872;4.460;2023-05-29T02:06:03;102657.25;;;10.92;83.11
74594;BME280;63097;51.872;4.460;2023-05-29T02:08:28;102652.13;;;11.02;82.84
74594;BME280;63097;51.872;4.460;2023-05-29T02:10:54;102657.06;;;11.00;82.83
74594;BME280;63097;51.872;4.460;2023-05-29T02:13:19;102656.19;;;10.99;82.45
74594;BME280;63097;51.872;4.460;2023-05-29T02:15:44;102654.91;;;10.89;82.41
74594;BME280;63097;51.872;4.460;2023-05-29T02:18:12;102650.16;;;10.83;82.53
74594;BME280;63097;51.872;4.460;2023-05-29T02:20:38;102657.03;;;10.80;82.64
74594;BME280;63097;51.872;4.460;2023-05-29T02:23:03;102649.28;;;10.82;81.97
74594;BME280;63097;51.872;4.460;2023-05-29T02:25:29;102657.44;;;10.77;82.07
74594;BME280;63097;51.872;4.460;2023-05-29T02:27:54;102659.34;;;10.77;82.05
74594;BME280;63097;51.872;4.460;2023-05-29T02:30:19;102653.78;;;10.77;81.82
74594;BME280;63097;51.872;4.460;2023-05-29T02:32:45;102651.84;;;10.71;82.26
74594;BME280;63097;51.872;4.460;2023-05-29T02:35:10;102650.34;;;10.68;82.38
74594;BME280;63097;51.872;4.460;2023-05-29T02:37:35;102650.56;;;10.67;82.24
74594;BME280;63097;51.872;4.460;2023-05-29T02:40:00;102650.13;;;10.63;82.44
74594;BME280;63097;51.872;4.460;2023-05-29T02:42:26;102651.59;;;10.59;81.98
74594;BME280;63097;51.872;4.460;2023-05-29T02:44:51;102654.81;;;10.56;82.07
74594;BME280;63097;51.872;4.460;2023-05-29T02:47:16;102650.06;;;10.57;82.04
74594;BME280;63097;51.872;4.460;2023-05-29T02:49:42;102642.16;;;10.60;82.00
74594;BME280;63097;51.872;4.460;2023-05-29T02:52:07;102644.94;;;10.60;81.55
74594;BME280;63097;51.872;4.460;2023-05-29T02:54:32;102651.59;;;10.53;82.15
74594;BME280;63097;51.872;4.460;2023-05-29T02:56:58;102651.97;;;10.50;82.36
74594;BME280;63097;51.872;4.460;2023-05-29T02:59:23;102654.38;;;10.53;82.08
74594;BME280;63097;51.872;4.460;2023-05-29T03:01:48;102651.53;;;10.46;82.21
74594;BME280;63097;51.872;4.460;2023-05-29T03:04:14;102653.28;;;10.47;82.11
74594;BME280;63097;51.872;4.460;2023-05-29T03:06:39;102657.94;;;10.40;82.36
74594;BME280;63097;51.872;4.460;2023-05-29T03:09:05;102660.72;;;10.40;82.53
74594;BME280;63097;51.872;4.460;2023-05-29T03:11:31;102668.66;;;10.43;82.67
74594;BME280;63097;51.872;4.460;2023-05-29T03:13:56;102666.31;;;10.47;82.44
74594;BME280;63097;51.872;4.460;2023-05-29T03:16:21;102667.34;;;10.39;82.58
74594;BME280;63097;51.872;4.460;2023-05-29T03:18:47;102669.69;;;10.36;82.65
74594;BME280;63097;51.872;4.460;2023-05-29T03:21:12;102667.94;;;10.28;82.66
74594;BME280;63097;51.872;4.460;2023-05-29T03:23:38;102660.50;;;10.35;82.56
74594;BME280;63097;51.872;4.460;2023-05-29T03:26:03;102668.38;;;10.25;83.08
74594;BME280;63097;51.872;4.460;2023-05-29T03:28:29;102676.06;;;10.23;83.31
74594;BME280;63097;51.872;4.460;2023-05-29T03:30:54;102671.16;;;10.25;83.10
74594;BME280;63097;51.872;4.460;2023-05-29T03:33:19;102664.97;;;10.30;82.74
74594;BME280;63097;51.872;4.460;2023-05-29T03:35:45;102655.94;;;10.21;82.88
74594;BME280;63097;51.872;4.460;2023-05-29T03:38:10;102664.50;;;10.20;83.05
74594;BME280;63097;51.872;4.460;2023-05-29T03:40:35;102666.84;;;10.16;83.69
74594;BME280;63097;51.872;4.460;2023-05-29T03:43:00;102658.88;;;10.13;82.90
74594;BME280;63097;51.872;4.460;2023-05-29T03:45:26;102661.72;;;10.20;83.09
74594;BME280;63097;51.872;4.460;2023-05-29T03:47:51;102668.31;;;10.12;83.05
74594;BME280;63097;51.872;4.460;2023-05-29T03:50:16;102668.75;;;10.22;82.25
74594;BME280;63097;51.872;4.460;2023-05-29T03:52:42;102668.31;;;10.19;82.17
74594;BME280;63097;51.872;4.460;2023-05-29T03:55:09;102665.16;;;10.22;82.13
74594;BME280;63097;51.872;4.460;2023-05-29T03:57:35;102678.63;;;10.18;81.96
74594;BME280;63097;51.872;4.460;2023-05-29T04:00:00;102674.53;;;10.21;81.18
74594;BME280;63097;51.872;4.460;2023-05-29T04:02:25;102674.97;;;10.24;80.84
74594;BME280;63097;51.872;4.460;2023-05-29T04:04:51;102675.69;;;10.33;80.55
74594;BME280;63097;51.872;4.460;2023-05-29T04:07:16;102678.63;;;10.25;80.60
74594;BME280;63097;51.872;4.460;2023-05-29T04:09:41;102686.16;;;10.31;79.77
74594;BME280;63097;51.872;4.460;2023-05-29T04:12:07;102686.84;;;10.39;79.26
74594;BME280;63097;51.872;4.460;2023-05-29T04:14:32;102681.88;;;10.35;78.85
74594;BME280;63097;51.872;4.460;2023-05-29T04:16:58;102680.81;;;10.36;78.59
74594;BME280;63097;51.872;4.460;2023-05-29T04:19:23;102685.53;;;10.35;78.42
74594;BME280;63097;51.872;4.460;2023-05-29T04:21:48;102692.16;;;10.34;77.65
74594;BME280;63097;51.872;4.460;2023-05-29T04:24:14;102690.00;;;10.30;77.63
74594;BME280;63097;51.872;4.460;2023-05-29T04:26:39;102700.31;;;10.42;76.76
74594;BME280;63097;51.872;4.460;2023-05-29T04:29:05;102699.28;;;10.50;76.24
74594;BME280;63097;51.872;4.460;2023-05-29T04:31:31;102699.06;;;10.51;75.79
74594;BME280;63097;51.872;4.460;2023-05-29T04:33:56;102698.25;;;10.51;75.66
74594;BME280;63097;51.872;4.460;2023-05-29T04:36:23;102695.47;;;10.57;75.48
74594;BME280;63097;51.872;4.460;2023-05-29T04:38:48;102697.19;;;10.58;74.98
74594;BME280;63097;51.872;4.460;2023-05-29T04:41:14;102693.13;;;10.54;75.00
74594;BME280;63097;51.872;4.460;2023-05-29T04:43:39;102698.47;;;10.62;74.57
74594;BME280;63097;51.872;4.460;2023-05-29T04:46:04;102704.91;;;10.63;74.24
74594;BME280;63097;51.872;4.460;2023-05-29T04:48:30;102702.16;;;10.69;73.36
74594;BME280;63097;51.872;4.460;2023-05-29T04:50:55;102704.09;;;10.75;72.66
74594;BME280;63097;51.872;4.460;2023-05-29T04:53:20;102701.31;;;10.75;72.37
74594;BME280;63097;51.872;4.460;2023-05-29T04:55:45;102720.84;;;10.82;72.33
74594;BME280;63097;51.872;4.460;2023-05-29T04:58:11;102701.56;;;10.93;71.79
74594;BME280;63097;51.872;4.460;2023-05-29T05:00:36;102711.19;;;10.84;72.13
74594;BME280;63097;51.872;4.460;2023-05-29T05:03:01;102725.38;;;10.89;72.26
74594;BME280;63097;51.872;4.460;2023-05-29T05:05:27;102710.59;;;10.95;71.90
74594;BME280;63097;51.872;4.460;2023-05-29T05:07:52;102728.59;;;10.99;71.41
74594;BME280;63097;51.872;4.460;2023-05-29T05:10:17;102720.06;;;11.07;71.43
74594;BME280;63097;51.872;4.460;2023-05-29T05:12:43;102730.50;;;10.99;72.07
74594;BME280;63097;51.872;4.460;2023-05-29T05:15:08;102727.53;;;11.07;72.16
74594;BME280;63097;51.872;4.460;2023-05-29T05:17:34;102735.91;;;11.13;72.09
74594;BME280;63097;51.872;4.460;2023-05-29T05:19:59;102724.75;;;11.13;72.01
74594;BME280;63097;51.872;4.460;2023-05-29T05:22:25;102728.63;;;11.19;71.85
74594;BME280;63097;51.872;4.460;2023-05-29T05:24:50;102727.34;;;11.22;71.31
74594;BME280;63097;51.872;4.460;2023-05-29T05:27:15;102721.59;;;11.30;71.29
74594;BME280;63097;51.872;4.460;2023-05-29T05:29:40;102724.38;;;11.36;70.88
74594;BME280;63097;51.872;4.460;2023-05-29T05:32:06;102727.59;;;11.40;70.36
74594;BME280;63097;51.872;4.460;2023-05-29T05:34:31;102724.38;;;11.43;70.29
74594;BME280;63097;51.872;4.460;2023-05-29T05:36:57;102725.47;;;11.55;69.70
74594;BME280;63097;51.872;4.460;2023-05-29T05:39:22;102733.41;;;11.58;69.93
74594;BME280;63097;51.872;4.460;2023-05-29T05:41:47;102727.84;;;11.71;69.03
74594;BME280;63097;51.872;4.460;2023-05-29T05:44:12;102729.59;;;11.72;69.30
74594;BME280;63097;51.872;4.460;2023-05-29T05:46:38;102729.56;;;11.78;69.00
74594;BME280;63097;51.872;4.460;2023-05-29T05:49:03;102735.78;;;12.00;68.36
74594;BME280;63097;51.872;4.460;2023-05-29T05:51:28;102732.56;;;12.03;67.66
74594;BME280;63097;51.872;4.460;2023-05-29T05:53:54;102732.97;;;12.13;67.12
74594;BME280;63097;51.872;4.460;2023-05-29T05:56:19;102730.19;;;12.13;66.66
74594;BME280;63097;51.872;4.460;2023-05-29T05:58:44;102727.38;;;12.26;66.51
74594;BME280;63097;51.872;4.460;2023-05-29T06:01:10;102741.50;;;12.38;65.86
74594;BME280;63097;51.872;4.460;2023-05-29T06:03:35;102730.91;;;12.53;65.88
74594;BME280;63097;51.872;4.460;2023-05-29T06:06:00;102741.91;;;12.54;65.51
74594;BME280;63097;51.872;4.460;2023-05-29T06:08:26;102736.03;;;12.62;65.04
74594;BME280;63097;51.872;4.460;2023-05-29T06:10:51;102748.63;;;12.84;65.01
74594;BME280;63097;51.872;4.460;2023-05-29T06:13:16;102749.44;;;12.91;64.48
74594;BME280;63097;51.872;4.460;2023-05-29T06:15:42;102743.22;;;12.89;64.55
74594;BME280;63097;51.872;4.460;2023-05-29T06:18:08;102749.84;;;13.01;64.83
74594;BME280;63097;51.872;4.460;2023-05-29T06:20:33;102744.25;;;13.08;64.82
74594;BME280;63097;51.872;4.460;2023-05-29T06:22:58;102756.09;;;12.97;64.36
74594;BME280;63097;51.872;4.460;2023-05-29T06:25:24;102749.41;;;13.11;64.45
74594;BME280;63097;51.872;4.460;2023-05-29T06:27:49;102756.06;;;13.10;64.21
74594;BME280;63097;51.872;4.460;2023-05-29T06:30:14;102748.94;;;13.14;64.58
74594;BME280;63097;51.872;4.460;2023-05-29T06:32:40;102756.63;;;13.25;64.97
74594;BME280;63097;51.872;4.460;2023-05-29T06:35:05;102748.63;;;13.29;63.98
74594;BME280;63097;51.872;4.460;2023-05-29T06:37:30;102747.75;;;13.35;64.32
74594;BME280;63097;51.872;4.460;2023-05-29T06:39:56;102758.22;;;13.46;64.12
74594;BME280;63097;51.872;4.460;2023-05-29T06:42:21;102754.03;;;13.86;62.69
74594;BME280;63097;51.872;4.460;2023-05-29T06:44:47;102756.06;;;13.72;62.94
74594;BME280;63097;51.872;4.460;2023-05-29T06:47:12;102762.19;;;13.87;62.78
74594;BME280;63097;51.872;4.460;2023-05-29T06:49:37;102748.81;;;13.89;62.31
74594;BME280;63097;51.872;4.460;2023-05-29T06:52:03;102764.28;;;14.17;61.28
74594;BME280;63097;51.872;4.460;2023-05-29T06:54:28;102763.94;;;14.31;60.99
74594;BME280;63097;51.872;4.460;2023-05-29T06:56:53;102762.31;;;14.60;60.67
74594;BME280;63097;51.872;4.460;2023-05-29T06:59:20;102767.44;;;14.27;60.91
74594;BME280;63097;51.872;4.460;2023-05-29T07:01:45;102765.44;;;14.09;61.95
74594;BME280;63097;51.872;4.460;2023-05-29T07:04:11;102765.94;;;13.99;61.61
74594;BME280;63097;51.872;4.460;2023-05-29T07:06:36;102773.59;;;14.35;61.17
74594;BME280;63097;51.872;4.460;2023-05-29T07:09:01;102769.03;;;14.41;60.21
74594;BME280;63097;51.872;4.460;2023-05-29T07:11:27;102771.09;;;14.27;61.37
74594;BME280;63097;51.872;4.460;2023-05-29T07:13:53;102768.84;;;14.11;61.65
74594;BME280;63097;51.872;4.460;2023-05-29T07:16:18;102779.50;;;14.02;61.44
74594;BME280;63097;51.872;4.460;2023-05-29T07:18:44;102771.84;;;14.59;60.17
74594;BME280;63097;51.872;4.460;2023-05-29T07:21:09;102776.13;;;14.79;59.40
74594;BME280;63097;51.872;4.460;2023-05-29T07:23:34;102772.44;;;14.97;59.42
74594;BME280;63097;51.872;4.460;2023-05-29T07:26:00;102780.16;;;15.01;58.42
74594;BME280;63097;51.872;4.460;2023-05-29T07:28:25;102776.00;;;15.04;58.96
74594;BME280;63097;51.872;4.460;2023-05-29T07:30:50;102780.81;;;15.15;58.50
74594;BME280;63097;51.872;4.460;2023-05-29T07:33:16;102776.25;;;15.02;58.25
74594;BME280;63097;51.872;4.460;2023-05-29T07:35:41;102783.47;;;15.10;57.56
74594;BME280;63097;51.872;4.460;2023-05-29T07:38:06;102778.38;;;15.19;59.04
74594;BME280;63097;51.872;4.460;2023-05-29T07:40:31;102780.19;;;15.61;57.56
74594;BME280;63097;51.872;4.460;2023-05-29T07:42:57;102784.63;;;15.91;56.00
74594;BME280;63097;51.872;4.460;2023-05-29T07:45:22;102787.09;;;15.99;56.50
74594;BME280;63097;51.872;4.460;2023-05-29T07:47:47;102786.19;;;15.76;55.99
74594;BME280;63097;51.872;4.460;2023-05-29T07:50:14;102793.22;;;15.55;56.69
74594;BME280;63097;51.872;4.460;2023-05-29T07:52:39;102786.28;;;16.22;55.25
74594;BME280;63097;51.872;4.460;2023-05-29T07:55:05;102785.53;;;16.03;54.95
74594;BME280;63097;51.872;4.460;2023-05-29T07:57:30;102787.63;;;16.31;54.79
74594;BME280;63097;51.872;4.460;2023-05-29T07:59:55;102784.94;;;16.36;53.39
74594;BME280;63097;51.872;4.460;2023-05-29T08:02:21;102777.81;;;15.99;54.82
74594;BME280;63097;51.872;4.460;2023-05-29T08:04:46;102785.78;;;16.37;53.96
74594;BME280;63097;51.872;4.460;2023-05-29T08:07:12;102790.41;;;16.08;55.18
74594;BME280;63097;51.872;4.460;2023-05-29T08:09:37;102790.81;;;16.58;53.65
74594;BME280;63097;51.872;4.460;2023-05-29T08:12:02;102784.47;;;16.62;53.33
74594;BME280;63097;51.872;4.460;2023-05-29T08:14:28;102784.56;;;16.56;53.07
74594;BME280;63097;51.872;4.460;2023-05-29T08:16:53;102786.03;;;16.35;53.81
74594;BME280;63097;51.872;4.460;2023-05-29T08:19:18;102792.63;;;16.41;52.74
74594;BME280;63097;51.872;4.460;2023-05-29T08:21:44;102794.44;;;16.47;52.47
74594;BME280;63097;51.872;4.460;2023-05-29T08:24:09;102786.50;;;16.90;51.94
74594;BME280;63097;51.872;4.460;2023-05-29T08:26:35;102789.47;;;17.23;51.55
74594;BME280;63097;51.872;4.460;2023-05-29T08:29:00;102794.94;;;17.30;51.39
74594;BME280;63097;51.872;4.460;2023-05-29T08:31:26;102796.88;;;17.29;50.85
74594;BME280;63097;51.872;4.460;2023-05-29T08:33:51;102799.56;;;17.64;50.27
74594;BME280;63097;51.872;4.460;2023-05-29T08:36:17;102795.53;;;17.88;50.08
74594;BME280;63097;51.872;4.460;2023-05-29T08:38:42;102808.28;;;18.57;48.43
74594;BME280;63097;51.872;4.460;2023-05-29T08:41:07;102807.25;;;18.84;47.30
74594;BME280;63097;51.872;4.460;2023-05-29T08:43:34;102804.69;;;18.45;47.23
74594;BME280;63097;51.872;4.460;2023-05-29T08:46:00;102814.91;;;18.67;47.59
74594;BME280;63097;51.872;4.460;2023-05-29T08:48:28;102811.44;;;18.60;47.37
74594;BME280;63097;51.872;4.460;2023-05-29T08:50:55;102803.81;;;18.44;46.85
74594;BME280;63097;51.872;4.460;2023-05-29T08:53:25;102789.72;;;18.28;47.27
74594;BME280;63097;51.872;4.460;2023-05-29T08:55:52;102803.06;;;18.49;46.83
74594;BME280;63097;51.872;4.460;2023-05-29T08:58:21;102803.66;;;18.34;46.85
74594;BME280;63097;51.872;4.460;2023-05-29T09:00:48;102816.59;;;18.68;46.63
74594;BME280;63097;51.872;4.460;2023-05-29T09:03:13;102806.59;;;18.77;45.66
74594;BME280;63097;51.872;4.460;2023-05-29T09:05:39;102822.59;;;18.55;45.82
74594;BME280;63097;51.872;4.460;2023-05-29T09:08:05;102813.03;;;18.40;45.42
74594;BME280;63097;51.872;4.460;2023-05-29T09:10:31;102817.53;;;18.41;45.83
74594;BME280;63097;51.872;4.460;2023-05-29T09:12:56;102827.72;;;18.25;45.92
74594;BME280;63097;51.872;4.460;2023-05-29T09:15:23;102819.34;;;18.30;45.72
74594;BME280;63097;51.872;4.460;2023-05-29T09:17:57;102822.84;;;18.21;45.49
74594;BME280;63097;51.872;4.460;2023-05-29T09:20:23;102822.09;;;18.08;45.65
74594;BME280;63097;51.872;4.460;2023-05-29T09:22:53;102822.78;;;18.49;44.60
74594;BME280;63097;51.872;4.460;2023-05-29T09:25:23;102824.72;;;18.32;45.19
74594;BME280;63097;51.872;4.460;2023-05-29T09:27:58;102820.63;;;18.72;43.33
74594;BME280;63097;51.872;4.460;2023-05-29T09:30:39;102821.81;;;18.76;43.17
74594;BME280;63097;51.872;4.460;2023-05-29T09:33:07;102820.03;;;18.70;43.57
74594;BME280;63097;51.872;4.460;2023-05-29T09:35:35;102814.00;;;18.45;43.05
74594;BME280;63097;51.872;4.460;2023-05-29T09:38:00;102811.31;;;18.55;43.17
74594;BME280;63097;51.872;4.460;2023-05-29T09:40:29;102815.88;;;18.94;42.85
74594;BME280;63097;51.872;4.460;2023-05-29T09:42:55;102803.88;;;19.04;42.84
74594;BME280;63097;51.872;4.460;2023-05-29T09:45:21;102801.66;;;19.06;42.75
74594;BME280;63097;51.872;4.460;2023-05-29T09:47:47;102813.44;;;19.03;42.13
74594;BME280;63097;51.872;4.460;2023-05-29T09:50:19;102821.94;;;18.86;43.17
74594;BME280;63097;51.872;4.460;2023-05-29T09:52:44;102807.94;;;19.13;42.08
74594;BME280;63097;51.872;4.460;2023-05-29T09:55:09;102812.78;;;19.61;41.34
74594;BME280;63097;51.872;4.460;2023-05-29T09:57:35;102807.16;;;19.61;41.31
74594;BME280;63097;51.872;4.460;2023-05-29T10:00:01;102805.81;;;20.00;41.67
74594;BME280;63097;51.872;4.460;2023-05-29T10:02:27;102807.94;;;20.15;41.99
74594;BME280;63097;51.872;4.460;2023-05-29T10:04:52;102799.47;;;20.46;40.71
74594;BME280;63097;51.872;4.460;2023-05-29T10:07:26;102805.47;;;19.91;41.32
74594;BME280;63097;51.872;4.460;2023-05-29T10:09:52;102813.00;;;20.13;40.49
74594;BME280;63097;51.872;4.460;2023-05-29T10:12:20;102804.81;;;20.43;39.82
74594;BME280;63097;51.872;4.460;2023-05-29T10:14:46;102809.69;;;20.47;38.20
74594;BME280;63097;51.872;4.460;2023-05-29T10:17:15;102791.66;;;20.22;37.98
74594;BME280;63097;51.872;4.460;2023-05-29T10:19:44;102800.41;;;19.93;39.04
74594;BME280;63097;51.872;4.460;2023-05-29T10:22:10;102795.88;;;20.19;38.96
74594;BME280;63097;51.872;4.460;2023-05-29T10:24:36;102799.94;;;20.33;39.14
74594;BME280;63097;51.872;4.460;2023-05-29T10:27:02;102801.06;;;20.32;40.40
74594;BME280;63097;51.872;4.460;2023-05-29T10:29:43;102800.38;;;20.57;38.55
74594;BME280;63097;51.872;4.460;2023-05-29T10:37:32;102795.25;;;20.90;36.97
74594;BME280;63097;51.872;4.460;2023-05-29T10:40:07;102784.69;;;21.33;36.15
74594;BME280;63097;51.872;4.460;2023-05-29T10:45:04;102783.84;;;21.37;37.28
74594;BME280;63097;51.872;4.460;2023-05-29T10:47:29;102769.16;;;21.40;36.63
74594;BME280;63097;51.872;4.460;2023-05-29T10:49:59;102789.06;;;20.98;36.53
74594;BME280;63097;51.872;4.460;2023-05-29T10:52:25;102786.16;;;21.45;36.99
74594;BME280;63097;51.872;4.460;2023-05-29T10:54:51;102774.59;;;21.72;37.00
74594;BME280;63097;51.872;4.460;2023-05-29T10:57:17;102776.31;;;21.73;37.17
74594;BME280;63097;51.872;4.460;2023-05-29T10:59:44;102778.91;;;22.30;35.21
74594;BME280;63097;51.872;4.460;2023-05-29T11:02:10;102785.16;;;22.22;35.96
74594;BME280;63097;51.872;4.460;2023-05-29T11:04:36;102778.28;;;21.72;36.34
74594;BME280;63097;51.872;4.460;2023-05-29T11:07:01;102789.69;;;22.23;35.58
74594;BME280;63097;51.872;4.460;2023-05-29T11:12:12;102782.31;;;22.57;34.67
74594;BME280;63097;51.872;4.460;2023-05-29T11:14:53;102783.34;;;22.96;34.64
74594;BME280;63097;51.872;4.460;2023-05-29T11:19:56;102780.03;;;22.69;33.72
74594;BME280;63097;51.872;4.460;2023-05-29T11:22:25;102777.53;;;23.36;33.79
74594;BME280;63097;51.872;4.460;2023-05-29T11:24:52;102781.25;;;23.27;32.58
74594;BME280;63097;51.872;4.460;2023-05-29T11:27:18;102780.72;;;23.20;33.14
74594;BME280;63097;51.872;4.460;2023-05-29T11:29:44;102791.34;;;22.79;34.02
74594;BME280;63097;51.872;4.460;2023-05-29T11:32:14;102788.91;;;23.80;31.79
74594;BME280;63097;51.872;4.460;2023-05-29T11:34:43;102783.19;;;24.24;31.38
74594;BME280;63097;51.872;4.460;2023-05-29T11:37:08;102783.75;;;23.87;32.22
74594;BME280;63097;51.872;4.460;2023-05-29T11:39:37;102790.63;;;23.76;31.96
74594;BME280;63097;51.872;4.460;2023-05-29T11:42:03;102785.84;;;23.08;33.77
74594;BME280;63097;51.872;4.460;2023-05-29T11:44:28;102790.41;;;23.09;33.03
74594;BME280;63097;51.872;4.460;2023-05-29T11:47:04;102790.28;;;23.44;33.13
74594;BME280;63097;51.872;4.460;2023-05-29T11:49:31;102787.59;;;23.04;33.09
74594;BME280;63097;51.872;4.460;2023-05-29T11:52:10;102783.22;;;23.26;34.00
74594;BME280;63097;51.872;4.460;2023-05-29T11:54:35;102777.03;;;23.68;33.11
74594;BME280;63097;51.872;4.460;2023-05-29T11:57:01;102779.56;;;23.74;32.13
74594;BME280;63097;51.872;4.460;2023-05-29T11:59:29;102784.09;;;23.80;31.13
74594;BME280;63097;51.872;4.460;2023-05-29T12:01:55;102781.53;;;24.18;31.51
74594;BME280;63097;51.872;4.460;2023-05-29T12:04:20;102783.78;;;24.83;30.98
74594;BME280;63097;51.872;4.460;2023-05-29T12:06:45;102774.84;;;24.04;33.16
74594;BME280;63097;51.872;4.460;2023-05-29T12:09:26;102777.97;;;24.64;32.34
74594;BME280;63097;51.872;4.460;2023-05-29T12:11:52;102769.41;;;25.17;29.92
74594;BME280;63097;51.872;4.460;2023-05-29T12:14:17;102771.88;;;24.76;30.73
74594;BME280;63097;51.872;4.460;2023-05-29T12:16:42;102759.66;;;24.75;30.05
74594;BME280;63097;51.872;4.460;2023-05-29T12:19:08;102762.06;;;24.01;30.36
74594;BME280;63097;51.872;4.460;2023-05-29T12:21:33;102766.50;;;24.12;31.68
74594;BME280;63097;51.872;4.460;2023-05-29T12:23:59;102759.09;;;24.45;30.60
74594;BME280;63097;51.872;4.460;2023-05-29T12:26:24;102756.56;;;24.96;30.13
74594;BME280;63097;51.872;4.460;2023-05-29T12:28:50;102749.84;;;25.10;29.99
74594;BME280;63097;51.872;4.460;2023-05-29T12:31:26;102751.81;;;24.62;29.53
74594;BME280;63097;51.872;4.460;2023-05-29T12:33:52;102762.91;;;24.35;29.43
74594;BME280;63097;51.872;4.460;2023-05-29T12:36:17;102766.00;;;24.05;30.29
74594;BME280;63097;51.872;4.460;2023-05-29T12:38:49;102763.25;;;24.57;31.14
74594;BME280;63097;51.872;4.460;2023-05-29T12:41:28;102757.97;;;24.69;29.40
74594;BME280;63097;51.872;4.460;2023-05-29T12:43:57;102767.19;;;24.33;30.31
74594;BME280;63097;51.872;4.460;2023-05-29T12:46:26;102766.72;;;24.49;30.60
74594;BME280;63097;51.872;4.460;2023-05-29T12:48:55;102762.66;;;24.32;30.64
74594;BME280;63097;51.872;4.460;2023-05-29T12:51:27;102753.16;;;25.17;29.42
74594;BME280;63097;51.872;4.460;2023-05-29T12:53:52;102762.38;;;25.09;30.03
74594;BME280;63097;51.872;4.460;2023-05-29T12:56:17;102762.47;;;25.23;29.02
74594;BME280;63097;51.872;4.460;2023-05-29T12:58:43;102756.56;;;24.96;29.28